createdAt,value
2019-06-20T00:01:05.292Z,4.70
2019-06-20T00:03:38.531Z,4.15
2019-06-20T00:06:11.108Z,4.90
2019-06-20T00:08:44.080Z,4.67
2019-06-20T00:11:17.058Z,4.80
2019-06-20T00:13:49.854Z,4.53
2019-06-20T00:16:23.051Z,4.67
2019-06-20T00:18:55.762Z,5.37
2019-06-20T00:21:28.482Z,4.97
2019-06-20T00:24:02.001Z,5.20
2019-06-20T00:26:34.713Z,4.12
2019-06-20T00:29:07.276Z,5.03
2019-06-20T00:31:40.280Z,4.80
2019-06-20T00:34:12.815Z,5.13
2019-06-20T00:36:45.227Z,5.03
2019-06-20T00:39:17.974Z,5.27
2019-06-20T00:41:50.580Z,4.57
2019-06-20T00:44:23.194Z,4.93
2019-06-20T00:46:56.150Z,4.43
2019-06-20T00:49:28.718Z,5.47
2019-06-20T00:52:01.340Z,4.18
2019-06-20T00:54:34.248Z,4.05
2019-06-20T00:57:06.873Z,3.60
2019-06-20T00:59:39.385Z,4.30
2019-06-20T01:02:13.585Z,3.95
2019-06-20T01:04:46.279Z,4.30
2019-06-20T01:07:18.930Z,4.00
2019-06-20T01:09:52.775Z,3.70
2019-06-20T01:12:25.332Z,3.80
2019-06-20T01:14:57.865Z,3.93
2019-06-20T01:17:31.575Z,3.70
2019-06-20T01:20:04.697Z,3.40
2019-06-20T01:22:37.464Z,3.40
2019-06-20T01:25:10.457Z,3.73
2019-06-20T01:28:02.064Z,3.20
2019-06-20T01:30:34.353Z,3.60
2019-06-20T01:33:06.805Z,3.13
2019-06-20T01:35:40.099Z,3.30
2019-06-20T01:38:12.361Z,3.50
2019-06-20T01:40:44.714Z,3.33
2019-06-20T01:43:16.934Z,3.47
2019-06-20T01:45:49.215Z,3.37
2019-06-20T01:48:20.725Z,3.30
2019-06-20T01:50:53.033Z,3.97
2019-06-20T01:53:25.227Z,4.40
2019-06-20T01:55:57.512Z,4.50
2019-06-20T01:58:29.759Z,4.73
2019-06-20T02:01:02.353Z,5.00
2019-06-20T02:03:39.516Z,5.40
2019-06-20T02:06:16.809Z,5.20
2019-06-20T02:08:54.076Z,6.60
2019-06-20T02:11:31.593Z,5.87
2019-06-20T02:14:08.740Z,6.30
2019-06-20T02:16:46.093Z,7.67
2019-06-20T02:19:18.320Z,7.93
2019-06-20T02:21:50.613Z,8.00
2019-06-20T02:24:23.834Z,6.63
2019-06-20T02:26:56.129Z,7.60
2019-06-20T02:29:28.362Z,7.23
2019-06-20T02:32:01.652Z,7.60
2019-06-20T02:34:33.874Z,8.17
2019-06-20T02:37:06.128Z,7.57
2019-06-20T02:39:38.347Z,7.80
2019-06-20T02:42:10.662Z,6.90
2019-06-20T02:44:42.856Z,6.27
2019-06-20T02:47:15.160Z,6.80
2019-06-20T02:49:47.358Z,7.20
2019-06-20T02:52:19.583Z,6.00
2019-06-20T02:54:59.059Z,6.87
2019-06-20T02:57:35.332Z,7.27
2019-06-20T03:00:07.540Z,8.47
2019-06-20T03:02:39.780Z,7.40
2019-06-20T03:05:12.004Z,7.07
2019-06-20T03:07:45.010Z,6.67
2019-06-20T03:10:17.458Z,7.30
2019-06-20T03:12:49.724Z,6.97
2019-06-20T03:15:21.922Z,7.17
2019-06-20T03:17:54.188Z,6.60
2019-06-20T03:20:26.402Z,7.90
2019-06-20T03:26:19.288Z,7.17
2019-06-20T03:28:51.770Z,7.27
2019-06-20T03:31:25.139Z,9.67
2019-06-20T03:33:58.401Z,10.33
2019-06-20T03:36:31.671Z,7.97
2019-06-20T03:39:06.250Z,9.50
2019-06-20T03:41:39.099Z,10.60
2019-06-20T03:44:11.726Z,11.50
2019-06-20T03:46:44.131Z,10.87
2019-06-20T03:49:17.085Z,10.83
2019-06-20T03:51:51.650Z,12.33
2019-06-20T03:54:24.284Z,10.23
2019-06-20T03:56:57.329Z,9.13
2019-06-20T03:59:29.854Z,12.83
2019-06-20T04:02:02.413Z,13.13
2019-06-20T04:04:35.219Z,10.67
2019-06-20T04:07:07.689Z,12.00
2019-06-20T04:09:40.997Z,15.63
2019-06-20T04:12:13.926Z,12.23
2019-06-20T04:14:48.989Z,16.57
2019-06-20T04:17:21.990Z,16.27
2019-06-20T04:19:54.993Z,16.47
2019-06-20T04:22:27.757Z,17.40
2019-06-20T04:25:01.097Z,18.07
2019-06-20T04:27:33.862Z,16.67
2019-06-20T04:30:08.437Z,18.33
2019-06-20T04:32:40.984Z,19.77
2019-06-20T04:35:13.748Z,18.97
2019-06-20T04:37:46.376Z,17.97
2019-06-20T04:40:18.937Z,16.17
2019-06-20T04:42:51.682Z,18.53
2019-06-20T04:45:37.868Z,16.47
2019-06-20T04:48:10.505Z,16.13
2019-06-20T04:50:43.371Z,20.20
2019-06-20T04:53:15.978Z,15.93
2019-06-20T04:55:48.536Z,17.93
2019-06-20T04:58:22.004Z,17.83
2019-06-20T05:00:54.510Z,19.33
2019-06-20T05:03:27.104Z,19.43
2019-06-20T05:05:59.890Z,20.17
2019-06-20T05:08:32.447Z,19.77
2019-06-20T05:11:05.005Z,21.07
2019-06-20T05:13:38.023Z,18.97
2019-06-20T05:16:10.702Z,18.70
2019-06-20T05:18:43.415Z,17.50
2019-06-20T05:21:22.303Z,20.17
2019-06-20T05:23:55.364Z,19.00
2019-06-20T05:26:27.837Z,21.70
2019-06-20T05:29:00.875Z,19.67
2019-06-20T05:31:34.131Z,18.50
2019-06-20T05:34:06.820Z,18.60
2019-06-20T05:36:39.838Z,20.90
2019-06-20T05:39:12.385Z,19.70
2019-06-20T05:41:47.294Z,17.70
2019-06-20T05:44:21.185Z,20.43
2019-06-20T05:47:11.198Z,22.37
2019-06-20T05:49:45.023Z,21.40
2019-06-20T05:52:17.642Z,21.77
2019-06-20T05:54:50.748Z,23.30
2019-06-20T05:57:23.551Z,23.03
2019-06-20T05:59:56.173Z,20.37
2019-06-20T06:02:28.891Z,22.57
2019-06-20T06:05:01.720Z,20.53
2019-06-20T06:07:34.865Z,20.80
2019-06-20T06:10:09.048Z,22.50
2019-06-20T06:12:45.240Z,24.75
2019-06-20T06:15:17.777Z,22.87
2019-06-20T06:17:50.663Z,21.37
2019-06-20T06:20:23.232Z,18.83
2019-06-20T06:22:55.801Z,21.23
2019-06-20T06:25:28.794Z,22.03
2019-06-20T06:28:01.542Z,23.43
2019-06-20T06:30:34.502Z,21.33
2019-06-20T06:33:07.471Z,23.43
2019-06-20T06:35:40.356Z,20.83
2019-06-20T06:38:13.423Z,24.43
2019-06-20T06:40:47.158Z,22.40
2019-06-20T06:43:20.379Z,23.23
2019-06-20T06:45:53.713Z,23.92
2019-06-20T06:48:28.142Z,23.30
2019-06-20T06:51:01.389Z,21.93
2019-06-20T06:53:34.473Z,20.40
2019-06-20T06:56:07.971Z,18.57
2019-06-20T06:58:40.757Z,20.40
2019-06-20T07:01:13.665Z,20.30
2019-06-20T07:03:47.486Z,20.23
2019-06-20T07:06:20.657Z,20.53
2019-06-20T07:08:53.507Z,20.20
2019-06-20T07:11:26.839Z,19.87
2019-06-20T07:14:00.051Z,20.80
2019-06-20T07:16:33.210Z,19.00
2019-06-20T07:19:07.772Z,18.27
2019-06-20T07:21:40.780Z,17.17
2019-06-20T07:24:13.867Z,17.77
2019-06-20T07:26:47.199Z,17.93
2019-06-20T07:29:19.957Z,17.62
2019-06-20T07:31:52.985Z,16.70
2019-06-20T07:34:26.376Z,15.13
2019-06-20T07:36:59.237Z,15.57
2019-06-20T07:39:32.785Z,13.40
2019-06-20T07:42:06.367Z,12.10
2019-06-20T07:44:39.237Z,14.53
2019-06-20T07:47:17.549Z,14.10
2019-06-20T07:49:51.739Z,13.57
2019-06-20T07:52:24.039Z,13.80
2019-06-20T07:54:56.297Z,12.27
2019-06-20T07:57:28.634Z,13.00
2019-06-20T08:00:00.911Z,10.87
2019-06-20T08:02:34.778Z,13.07
2019-06-20T08:05:08.792Z,13.73
2019-06-20T08:07:43.743Z,13.10
2019-06-20T08:10:16.941Z,14.00
2019-06-20T08:12:49.332Z,12.43
2019-06-20T08:15:22.585Z,12.73
2019-06-20T08:17:56.089Z,10.60
2019-06-20T08:20:28.490Z,11.48
2019-06-20T08:23:01.790Z,9.53
2019-06-20T08:25:34.137Z,9.43
2019-06-20T08:28:07.193Z,10.17
2019-06-20T08:30:39.432Z,9.30
2019-06-20T08:33:12.371Z,8.63
2019-06-20T08:35:44.875Z,8.70
2019-06-20T08:38:17.651Z,9.13
2019-06-20T08:40:51.820Z,8.50
2019-06-20T08:43:24.107Z,8.90
2019-06-20T08:45:57.770Z,8.70
2019-06-20T08:48:30.204Z,8.67
2019-06-20T08:51:04.537Z,7.90
2019-06-20T08:53:37.013Z,7.40
2019-06-20T08:56:09.327Z,8.60
2019-06-20T08:58:41.691Z,8.53
2019-06-20T09:01:14.285Z,7.90
2019-06-20T09:03:46.647Z,8.23
2019-06-20T09:06:19.031Z,9.02
2019-06-20T09:08:51.414Z,7.40
2019-06-20T09:11:23.735Z,9.40
2019-06-20T09:13:57.226Z,8.43
2019-06-20T09:16:29.665Z,6.33
2019-06-20T09:19:02.616Z,6.17
2019-06-20T09:21:35.239Z,7.17
2019-06-20T09:24:08.485Z,7.03
2019-06-20T09:26:40.850Z,6.60
2019-06-20T09:29:13.125Z,7.67
2019-06-20T09:31:45.383Z,7.60
2019-06-20T09:34:18.330Z,6.07
2019-06-20T09:36:52.170Z,7.17
2019-06-20T09:39:26.723Z,7.77
2019-06-20T09:42:00.042Z,6.20
2019-06-20T09:44:32.322Z,5.03
2019-06-20T09:47:06.219Z,5.07
2019-06-20T09:49:39.116Z,5.67
2019-06-20T09:52:12.348Z,6.00
2019-06-20T09:54:48.465Z,5.67
2019-06-20T09:57:53.734Z,5.17
2019-06-20T10:01:04.117Z,6.60
2019-06-20T10:03:58.253Z,5.27
2019-06-20T10:06:30.557Z,5.77
2019-06-20T10:09:03.857Z,4.73
2019-06-20T10:11:36.417Z,4.43
2019-06-20T10:14:11.063Z,4.90
2019-06-20T10:16:47.225Z,4.53
2019-06-20T10:19:22.480Z,4.67
2019-06-20T10:21:55.951Z,4.90
2019-06-20T10:24:28.528Z,4.23
2019-06-20T10:27:01.042Z,4.27
2019-06-20T10:29:33.373Z,4.40
2019-06-20T10:32:05.773Z,4.30
2019-06-20T10:34:38.527Z,7.03
2019-06-20T10:37:10.960Z,5.00
2019-06-20T10:39:44.522Z,4.30
2019-06-20T10:42:18.050Z,4.77
2019-06-20T10:44:52.203Z,5.70
2019-06-20T10:47:33.592Z,4.37
2019-06-20T10:50:08.393Z,4.53
2019-06-20T10:52:42.059Z,4.47
2019-06-20T10:55:16.610Z,5.60
2019-06-20T10:57:49.799Z,5.50
2019-06-20T11:00:31.516Z,4.80
2019-06-20T11:03:04.370Z,3.67
2019-06-20T11:05:37.375Z,5.30
2019-06-20T11:08:09.816Z,5.23
2019-06-20T11:10:43.460Z,4.40
2019-06-20T11:13:18.019Z,4.17
2019-06-20T11:16:11.613Z,3.77
2019-06-20T11:18:44.459Z,3.40
2019-06-20T11:21:18.333Z,3.63
2019-06-20T11:23:51.320Z,3.73
2019-06-20T11:26:24.909Z,4.10
2019-06-20T11:29:46.468Z,3.53
2019-06-20T11:32:20.068Z,4.80
2019-06-20T11:34:52.725Z,4.70
2019-06-20T11:37:25.393Z,3.72
2019-06-20T11:40:02.849Z,4.47
2019-06-20T11:42:40.062Z,4.33
2019-06-20T11:45:25.820Z,4.07
2019-06-20T11:48:00.171Z,4.28
2019-06-20T11:50:40.020Z,4.43
2019-06-20T11:53:25.799Z,4.20
2019-06-20T11:56:25.591Z,3.53
2019-06-20T11:58:58.999Z,4.00
2019-06-20T12:02:57.476Z,3.47
2019-06-20T12:05:32.201Z,3.70
2019-06-20T12:08:12.677Z,3.67
2019-06-20T12:10:53.957Z,3.63
2019-06-20T12:13:29.733Z,4.43
2019-06-20T12:16:10.238Z,4.33
2019-06-20T12:18:49.459Z,4.30
2019-06-20T12:21:25.567Z,4.57
2019-06-20T12:24:04.367Z,4.63
2019-06-20T12:26:44.551Z,4.33
2019-06-20T12:29:18.576Z,4.00
2019-06-20T12:31:53.890Z,4.30
2019-06-20T12:34:27.295Z,4.70
2019-06-20T12:37:06.953Z,4.30
2019-06-20T12:39:46.419Z,3.90
2019-06-20T12:43:01.470Z,4.40
2019-06-20T12:45:42.852Z,3.62
2019-06-20T12:48:22.525Z,3.87
2019-06-20T12:50:59.381Z,4.57
2019-06-20T12:53:38.692Z,4.30
2019-06-20T12:56:15.473Z,4.00
2019-06-20T12:58:49.404Z,4.90
2019-06-20T13:01:36.852Z,5.30
2019-06-20T13:04:26.791Z,5.10
2019-06-20T13:07:05.435Z,4.30
2019-06-20T13:09:40.750Z,4.27
2019-06-20T13:12:14.815Z,4.20
2019-06-20T13:14:49.587Z,5.40
2019-06-20T13:17:32.650Z,5.50
2019-06-20T13:20:07.693Z,5.30
2019-06-20T13:22:46.439Z,5.80
2019-06-20T13:26:14.829Z,5.20
2019-06-20T13:29:04.778Z,6.50
2019-06-20T13:32:04.235Z,6.03
2019-06-20T13:34:53.813Z,6.90
2019-06-20T13:37:33.601Z,6.50
2019-06-20T13:40:09.385Z,5.53
2019-06-20T13:42:44.268Z,6.03
2019-06-20T13:45:37.261Z,6.77
2019-06-20T13:48:09.576Z,5.93
2019-06-20T13:50:42.291Z,5.97
2019-06-20T13:53:15.871Z,5.83
2019-06-20T13:55:50.700Z,5.23
2019-06-20T13:58:23.089Z,5.70
2019-06-20T14:00:55.831Z,5.70
2019-06-20T14:03:51.740Z,6.40
2019-06-20T14:09:39.010Z,5.87
2019-06-20T14:12:16.277Z,5.80
2019-06-20T14:14:55.718Z,5.72
2019-06-20T14:17:32.950Z,4.12
2019-06-20T14:20:08.348Z,5.80
2019-06-20T14:22:45.717Z,4.63
2019-06-20T14:25:20.460Z,4.93
2019-06-20T14:27:54.644Z,5.07
2019-06-20T14:30:27.590Z,5.20
2019-06-20T14:33:02.085Z,5.60
2019-06-20T14:35:35.446Z,5.20
2019-06-20T14:38:11.924Z,6.18
2019-06-20T14:40:54.529Z,5.33
2019-06-20T14:43:30.243Z,5.37
2019-06-20T14:46:11.076Z,5.33
2019-06-20T14:48:45.541Z,5.30
2019-06-20T14:51:20.236Z,5.80
2019-06-20T14:53:54.560Z,5.47
2019-06-20T14:56:28.027Z,5.30
2019-06-20T14:59:00.497Z,5.23
2019-06-20T15:01:53.661Z,5.73
2019-06-20T15:04:26.636Z,5.77
2019-06-20T15:07:03.598Z,4.97
2019-06-20T15:09:36.088Z,4.70
2019-06-20T15:12:08.520Z,4.80
2019-06-20T15:14:40.863Z,3.80
2019-06-20T15:17:13.228Z,3.90
2019-06-20T15:19:46.679Z,3.50
2019-06-20T15:22:27.810Z,3.03
2019-06-20T15:25:00.105Z,2.53
2019-06-20T15:27:34.576Z,2.53
2019-06-20T15:30:08.429Z,2.27
2019-06-20T15:32:53.352Z,2.77
2019-06-20T15:35:29.372Z,2.60
2019-06-20T15:38:01.829Z,2.50
2019-06-20T15:40:34.393Z,2.73
2019-06-20T15:43:07.294Z,3.17
2019-06-20T15:45:40.990Z,3.10
2019-06-20T15:48:14.720Z,3.00
2019-06-20T15:50:50.563Z,3.10
2019-06-20T15:53:23.570Z,3.67
2019-06-20T15:56:00.327Z,3.40
2019-06-20T15:58:56.036Z,3.13
2019-06-20T16:01:53.123Z,2.60
2019-06-20T16:05:10.770Z,2.47
2019-06-20T16:07:43.950Z,3.27
2019-06-20T16:10:17.950Z,2.50
2019-06-20T16:12:53.174Z,2.37
2019-06-20T16:15:27.100Z,2.22
2019-06-20T16:18:03.800Z,2.60
2019-06-20T16:20:38.962Z,3.10
2019-06-20T16:23:11.465Z,2.53
2019-06-20T16:25:54.343Z,2.67
2019-06-20T16:28:27.402Z,2.47
2019-06-20T16:31:08.712Z,2.80
2019-06-20T16:33:50.199Z,2.70
2019-06-20T16:36:22.839Z,3.00
2019-06-20T16:38:55.554Z,2.60
2019-06-20T16:41:28.298Z,2.70
2019-06-20T16:44:00.674Z,3.23
2019-06-20T16:46:34.659Z,2.87
2019-06-20T16:49:07.215Z,2.80
2019-06-20T16:51:39.818Z,3.10
2019-06-20T16:54:15.412Z,3.07
2019-06-20T16:56:51.272Z,3.03
2019-06-20T16:59:24.506Z,3.50
2019-06-20T17:01:57.993Z,3.00
2019-06-20T17:04:32.311Z,2.80
2019-06-20T17:07:06.633Z,3.00
2019-06-20T17:09:39.792Z,4.70
2019-06-20T17:12:12.517Z,2.80
2019-06-20T17:14:44.914Z,2.25
2019-06-20T17:17:17.429Z,2.70
2019-06-20T17:19:51.836Z,2.37
2019-06-20T17:22:39.616Z,2.80
2019-06-20T17:25:13.621Z,2.30
2019-06-20T17:27:47.848Z,2.67
2019-06-20T17:30:20.405Z,2.70
2019-06-20T17:32:57.044Z,2.73
2019-06-20T17:35:30.068Z,3.20
2019-06-20T17:38:18.843Z,2.93
2019-06-20T17:41:26.451Z,3.00
2019-06-20T17:44:07.960Z,3.00
2019-06-20T17:46:43.356Z,2.50
2019-06-20T17:49:18.041Z,2.33
2019-06-20T17:52:00.227Z,2.07
2019-06-20T17:54:49.512Z,2.00
2019-06-20T17:57:26.095Z,2.00
2019-06-20T18:00:02.113Z,1.93
2019-06-20T18:02:42.224Z,2.00
2019-06-20T18:05:19.405Z,2.20
2019-06-20T18:07:53.044Z,1.97
2019-06-20T18:10:27.460Z,2.30
2019-06-20T18:13:01.508Z,2.50
2019-06-20T18:15:41.179Z,2.30
2019-06-20T18:18:17.125Z,2.30
2019-06-20T18:20:53.552Z,2.50
2019-06-20T18:23:30.835Z,2.37
2019-06-20T18:26:08.329Z,2.70
2019-06-20T18:28:42.703Z,3.33
2019-06-20T18:31:18.726Z,3.17
2019-06-20T18:33:52.790Z,2.97
2019-06-20T18:36:25.264Z,2.90
2019-06-20T18:38:57.706Z,2.90
2019-06-20T18:41:30.103Z,2.70
2019-06-20T18:44:02.396Z,2.73
2019-06-20T18:46:35.617Z,3.10
2019-06-20T18:49:08.187Z,3.03
2019-06-20T18:51:40.569Z,2.77
2019-06-20T18:54:12.921Z,3.00
2019-06-20T18:56:45.279Z,3.10
2019-06-20T18:59:18.380Z,2.77
2019-06-20T19:01:51.037Z,3.10
2019-06-20T19:04:24.193Z,2.50
2019-06-20T19:06:57.547Z,2.70
2019-06-20T19:09:29.928Z,3.40
2019-06-20T19:12:02.427Z,3.40
2019-06-20T19:14:35.713Z,2.75
2019-06-20T19:17:09.588Z,3.47
2019-06-20T19:19:41.935Z,3.40
2019-06-20T19:22:14.852Z,2.90
2019-06-20T19:24:48.069Z,3.10
2019-06-20T19:27:20.618Z,3.20
2019-06-20T19:29:53.036Z,20.00
2019-06-20T19:32:25.400Z,13.37
2019-06-20T19:35:02.236Z,6.77
2019-06-20T19:37:35.166Z,3.93
2019-06-20T19:40:07.695Z,3.60
2019-06-20T19:42:40.169Z,3.40
2019-06-20T19:45:15.373Z,3.60
2019-06-20T19:47:48.476Z,3.57
2019-06-20T19:50:22.089Z,5.57
2019-06-20T19:52:54.493Z,6.12
2019-06-20T19:55:27.528Z,13.03
2019-06-20T19:58:00.764Z,26.60
2019-06-20T20:00:33.202Z,14.77
2019-06-20T20:03:05.840Z,12.70
2019-06-20T20:05:38.148Z,11.13
2019-06-20T20:08:10.512Z,10.47
2019-06-20T20:10:47.190Z,10.27
2019-06-20T20:13:19.571Z,8.03
2019-06-20T20:15:51.931Z,8.47
2019-06-20T20:18:24.259Z,6.23
2019-06-20T20:20:57.379Z,6.30
2019-06-20T20:23:29.722Z,15.07
2019-06-20T20:26:02.014Z,8.13
2019-06-20T20:28:34.288Z,5.60
2019-06-20T20:31:06.698Z,5.00
2019-06-20T20:33:39.908Z,4.87
2019-06-20T20:36:24.489Z,4.30
2019-06-20T20:38:57.780Z,3.80
2019-06-20T20:41:30.195Z,4.30
2019-06-20T20:44:02.543Z,4.10
2019-06-20T20:46:34.989Z,4.60
2019-06-20T20:49:08.910Z,3.93
2019-06-20T20:51:41.224Z,3.77
2019-06-20T20:54:15.495Z,4.00
2019-06-20T20:56:49.062Z,4.47
2019-06-20T20:59:21.388Z,4.57
2019-06-20T21:01:54.717Z,4.13
2019-06-20T21:04:27.110Z,3.45
2019-06-20T21:07:03.890Z,3.90
2019-06-20T21:09:37.479Z,4.07
2019-06-20T21:12:10.714Z,4.23
2019-06-20T21:14:43.091Z,4.47
2019-06-20T21:17:16.095Z,3.30
2019-06-20T21:19:48.479Z,3.97
2019-06-20T21:22:24.583Z,4.20
2019-06-20T21:24:57.454Z,4.13
2019-06-20T21:27:29.785Z,4.23
2019-06-20T21:30:05.529Z,4.10
2019-06-20T21:32:37.777Z,4.47
2019-06-20T21:35:10.207Z,4.40
2019-06-20T21:37:44.533Z,4.27
2019-06-20T21:40:17.026Z,4.63
2019-06-20T21:42:49.440Z,4.73
2019-06-20T21:45:21.979Z,4.77
2019-06-20T21:47:54.865Z,5.00
2019-06-20T21:50:27.912Z,4.67
2019-06-20T21:53:00.189Z,4.83
2019-06-20T21:55:32.496Z,4.90
2019-06-20T21:58:04.776Z,5.00
2019-06-20T22:00:43.157Z,4.67
2019-06-20T22:03:15.480Z,5.20
2019-06-20T22:05:48.955Z,5.83
2019-06-20T22:08:21.221Z,6.17
2019-06-20T22:10:53.537Z,5.13
2019-06-20T22:13:29.788Z,5.40
2019-06-20T22:16:04.822Z,5.37
2019-06-20T22:18:37.114Z,5.70
2019-06-20T22:21:09.343Z,6.37
2019-06-20T22:23:42.148Z,5.70
2019-06-20T22:26:14.429Z,6.17
2019-06-20T22:28:46.738Z,5.83
2019-06-20T22:31:19.093Z,5.43
2019-06-20T22:33:51.360Z,5.87
2019-06-20T22:36:38.746Z,7.03
2019-06-20T22:39:12.349Z,6.50
2019-06-20T22:41:45.530Z,6.20
2019-06-20T22:44:18.032Z,6.80
2019-06-20T22:46:50.423Z,7.03
2019-06-20T22:49:23.294Z,6.63
2019-06-20T22:51:55.545Z,7.33
2019-06-20T22:54:27.796Z,7.80
2019-06-20T22:57:00.068Z,6.63
2019-06-20T22:59:32.329Z,7.33
2019-06-20T23:02:04.584Z,7.67
2019-06-20T23:04:37.368Z,6.97
2019-06-20T23:07:09.671Z,6.22
2019-06-20T23:09:41.905Z,6.40
2019-06-20T23:12:14.112Z,7.07
2019-06-20T23:14:46.337Z,7.67
2019-06-20T23:17:18.550Z,7.17
2019-06-20T23:19:50.784Z,6.70
2019-06-20T23:22:22.999Z,7.50
2019-06-20T23:24:57.116Z,7.20
2019-06-20T23:27:29.452Z,7.77
2019-06-20T23:30:04.692Z,6.57
2019-06-20T23:32:37.299Z,5.35
2019-06-20T23:35:09.642Z,7.27
2019-06-20T23:37:41.921Z,7.67
2019-06-20T23:40:14.132Z,7.10
2019-06-20T23:42:47.195Z,7.70
2019-06-20T23:45:19.488Z,6.93
2019-06-20T23:47:52.468Z,5.97
2019-06-20T23:50:23.916Z,5.80
2019-06-20T23:53:05.161Z,7.20
2019-06-20T23:55:37.379Z,6.40
2019-06-20T23:58:09.607Z,5.80
